Time;durP1;ratioP1;P1;durP2;ratioP2;P2;SDS_P1;SDS_P2;PMS_P1;PMS_P2;Temp;Humidity;BMP_temperature;BMP_pressure;BME280_temperature;BME280_humidity;BME280_pressure;Samples;Min_cycle;Max_cycle;Signal;HPM_P1;HPM_P2
2024/03/27 00:00:26;;;;;;;2.75;1.00;;;14.90;54.20;;;;;;2367632;53;21585;-67
2024/03/27 00:02:53;;;;;;;1.70;0.80;;;14.90;54.30;;;;;;2344561;53;20968;-66
2024/03/27 00:05:19;;;;;;;3.28;1.20;;;14.90;54.30;;;;;;2321169;54;21044;-66
2024/03/27 00:07:45;;;;;;;2.42;0.93;;;14.80;54.30;;;;;;2368605;53;20926;-66
2024/03/27 00:10:13;;;;;;;2.05;0.82;;;14.80;54.30;;;;;;2368397;53;21026;-66
2024/03/27 00:12:40;;;;;;;2.60;0.90;;;14.80;54.40;;;;;;2368108;53;20910;-65
2024/03/27 00:15:07;;;;;;;2.72;1.02;;;14.80;54.40;;;;;;2368034;53;21077;-67
2024/03/27 00:17:33;;;;;;;2.12;0.90;;;14.80;54.50;;;;;;2367929;53;21285;-66
2024/03/27 00:20:04;;;;;;;3.08;1.10;;;14.70;54.40;;;;;;2368347;53;21304;-65
2024/03/27 00:22:30;;;;;;;2.95;1.30;;;14.70;54.40;;;;;;2367571;53;20950;-66
2024/03/27 00:24:56;;;;;;;2.35;1.00;;;14.70;54.50;;;;;;2367691;53;21080;-66
2024/03/27 00:27:23;;;;;;;2.80;1.10;;;14.70;54.50;;;;;;2367141;53;20930;-66
2024/03/27 00:29:52;;;;;;;2.30;1.08;;;14.70;54.50;;;;;;2368369;53;21074;-68
2024/03/27 00:32:19;;;;;;;2.30;0.93;;;14.60;54.50;;;;;;2367958;53;21482;-66
2024/03/27 00:34:46;;;;;;;3.00;1.17;;;14.60;54.50;;;;;;2344541;54;20946;-66
2024/03/27 00:37:12;;;;;;;2.92;1.20;;;14.60;54.60;;;;;;2368531;53;20957;-65
2024/03/27 00:39:38;;;;;;;2.45;1.17;;;14.60;54.60;;;;;;2367796;53;21048;-66
2024/03/27 00:42:05;;;;;;;2.60;1.00;;;14.50;54.50;;;;;;2368501;53;20967;-67
2024/03/27 00:44:31;;;;;;;4.05;1.35;;;14.50;54.50;;;;;;2337935;53;21186;-68
2024/03/27 00:46:57;;;;;;;3.70;1.40;;;14.50;54.50;;;;;;2353450;53;21021;-66
2024/03/27 00:49:23;;;;;;;4.28;1.25;;;14.50;54.60;;;;;;2367544;53;21192;-66
2024/03/27 00:51:50;;;;;;;4.90;1.60;;;14.50;54.60;;;;;;2368185;53;20934;-66
2024/03/27 00:54:20;;;;;;;2.97;1.30;;;14.40;54.60;;;;;;2367970;53;21891;-66
2024/03/27 00:56:46;;;;;;;3.17;1.30;;;14.40;54.60;;;;;;2366979;53;21343;-67
2024/03/27 00:59:12;;;;;;;3.90;1.45;;;14.40;54.60;;;;;;2327168;54;21823;-66
2024/03/27 01:01:42;;;;;;;3.83;1.67;;;14.30;54.70;;;;;;2366504;53;20938;-67
2024/03/27 01:04:08;;;;;;;3.20;1.30;;;14.30;54.70;;;;;;2368234;53;21803;-67
2024/03/27 01:06:34;;;;;;;2.87;1.20;;;14.30;54.80;;;;;;2367403;53;22631;-66
2024/03/27 01:09:03;;;;;;;3.12;1.27;;;14.20;54.70;;;;;;2368157;53;20982;-66
2024/03/27 01:11:33;;;;;;;3.17;1.40;;;14.20;54.80;;;;;;2367662;53;21341;-65
2024/03/27 01:14:00;;;;;;;3.35;1.50;;;14.20;54.80;;;;;;2341018;53;21082;-67
2024/03/27 01:16:27;;;;;;;2.53;1.10;;;14.20;54.80;;;;;;2366999;53;21983;-66
2024/03/27 01:18:53;;;;;;;3.05;1.02;;;14.10;54.70;;;;;;2368329;53;20942;-67
2024/03/27 01:21:20;;;;;;;2.10;1.00;;;14.10;54.70;;;;;;2367180;53;21070;-67
2024/03/27 01:23:47;;;;;;;2.47;1.10;;;14.10;54.70;;;;;;2368188;53;20938;-68
2024/03/27 01:26:13;;;;;;;2.25;0.93;;;14.00;54.60;;;;;;2368546;53;20979;-66
2024/03/27 01:28:40;;;;;;;2.83;1.20;;;14.00;54.60;;;;;;2359653;53;21549;-68
2024/03/27 01:31:06;;;;;;;1.67;0.70;;;14.00;54.60;;;;;;2350115;53;21800;-68
2024/03/27 01:33:32;;;;;;;2.20;1.00;;;13.90;54.50;;;;;;2342689;54;21715;-67
2024/03/27 01:36:00;;;;;;;2.75;1.00;;;13.90;54.50;;;;;;2368243;53;21161;-67
2024/03/27 01:38:26;;;;;;;3.03;1.02;;;13.90;54.50;;;;;;2367518;53;20934;-69
2024/03/27 01:40:52;;;;;;;3.58;1.17;;;13.80;54.40;;;;;;2368184;53;21647;-67
2024/03/27 01:43:19;;;;;;;2.05;0.98;;;13.80;54.50;;;;;;2367568;53;21041;-66
2024/03/27 01:45:46;;;;;;;2.15;1.00;;;13.70;54.40;;;;;;2367561;53;20985;-67
2024/03/27 01:48:12;;;;;;;2.30;1.00;;;13.70;54.40;;;;;;2368107;53;21412;-67
2024/03/27 01:50:39;;;;;;;3.10;1.20;;;13.60;54.30;;;;;;2367882;53;21006;-67
2024/03/27 01:53:05;;;;;;;2.40;1.20;;;13.60;54.40;;;;;;2368712;53;20973;-66
2024/03/27 01:55:31;;;;;;;3.67;1.50;;;13.50;54.30;;;;;;2367717;53;21276;-66
2024/03/27 01:57:58;;;;;;;2.33;1.10;;;13.50;54.30;;;;;;2367567;53;21328;-67
2024/03/27 02:00:24;;;;;;;3.03;1.30;;;13.40;54.30;;;;;;2367882;53;21078;-67
2024/03/27 02:02:50;;;;;;;4.25;1.25;;;13.40;54.40;;;;;;2338711;54;21012;-67
2024/03/27 02:05:17;;;;;;;2.92;1.20;;;13.30;54.30;;;;;;2353015;53;20906;-65
2024/03/27 02:07:56;;;;;;;3.00;1.30;;;13.30;54.30;;;;;;2359387;53;20966;-66
2024/03/27 02:10:22;;;;;;;3.05;1.42;;;13.30;54.20;;;;;;2331057;54;21008;-66
2024/03/27 02:12:48;;;;;;;2.85;1.30;;;13.20;54.20;;;;;;2367759;53;20930;-66
2024/03/27 02:15:15;;;;;;;3.47;1.10;;;13.10;54.20;;;;;;2367942;53;20930;-66
2024/03/27 02:17:41;;;;;;;2.83;1.12;;;12.90;54.10;;;;;;2368550;53;21090;-66
2024/03/27 02:20:09;;;;;;;3.30;1.27;;;12.80;54.00;;;;;;2368290;53;21226;-67
2024/03/27 02:22:35;;;;;;;3.10;1.40;;;12.90;54.10;;;;;;2367333;53;21597;-67
2024/03/27 02:25:24;;;;;;;2.70;1.05;;;12.90;54.20;;;;;;2367834;53;21245;-68
2024/03/27 02:27:50;;;;;;;2.40;1.02;;;12.80;54.20;;;;;;2367048;53;20911;-67
2024/03/27 02:30:17;;;;;;;4.75;1.40;;;12.80;54.30;;;;;;2367603;53;21447;-65
2024/03/27 02:32:43;;;;;;;4.05;1.55;;;12.70;54.30;;;;;;2368304;53;21076;-66
2024/03/27 02:35:11;;;;;;;3.90;1.45;;;12.70;54.30;;;;;;2367914;53;20962;-68
2024/03/27 02:37:38;;;;;;;3.83;1.52;;;12.70;54.40;;;;;;2367430;53;20933;-66
2024/03/27 02:40:05;;;;;;;4.28;1.75;;;12.60;54.50;;;;;;2368008;53;21018;-68
2024/03/27 02:42:32;;;;;;;4.80;1.87;;;12.60;54.50;;;;;;2343135;53;21463;-67
2024/03/27 02:44:58;;;;;;;4.28;1.60;;;12.60;54.60;;;;;;2368066;53;21015;-66
2024/03/27 02:47:26;;;;;;;4.85;1.90;;;12.60;54.60;;;;;;2368189;53;20950;-66
2024/03/27 02:49:52;;;;;;;4.57;1.55;;;12.50;54.60;;;;;;2368349;53;21787;-66
2024/03/27 02:52:19;;;;;;;3.17;1.30;;;12.50;54.60;;;;;;2368150;53;21022;-66
2024/03/27 02:54:45;;;;;;;4.47;1.30;;;12.50;54.70;;;;;;2367930;53;21081;-66
2024/03/27 02:57:12;;;;;;;2.50;1.12;;;12.40;54.70;;;;;;2368292;53;21042;-66
2024/03/27 02:59:38;;;;;;;2.00;0.95;;;12.40;54.70;;;;;;2334012;53;21179;-66
2024/03/27 03:02:05;;;;;;;4.97;1.37;;;12.40;54.70;;;;;;2359546;53;20986;-67
2024/03/27 03:04:34;;;;;;;3.58;1.50;;;12.30;54.70;;;;;;2342419;54;21668;-68
2024/03/27 03:07:00;;;;;;;3.15;1.60;;;12.30;54.80;;;;;;2368182;53;21304;-66
2024/03/27 03:09:28;;;;;;;3.53;1.40;;;12.30;54.80;;;;;;2367750;53;20958;-66
2024/03/27 03:11:55;;;;;;;3.20;1.23;;;12.30;54.90;;;;;;2367184;53;20977;-66
2024/03/27 03:14:21;;;;;;;3.30;1.12;;;12.30;54.90;;;;;;2368148;53;20922;-67
2024/03/27 03:16:47;;;;;;;5.50;1.30;;;12.20;54.90;;;;;;2368405;53;20954;-67
2024/03/27 03:19:15;;;;;;;2.58;1.20;;;12.20;54.80;;;;;;2348255;53;21481;-66
2024/03/27 03:21:42;;;;;;;4.18;1.10;;;12.10;54.80;;;;;;2365073;53;20942;-67
2024/03/27 03:24:09;;;;;;;2.72;1.20;;;12.10;54.80;;;;;;2368254;53;20941;-67
2024/03/27 03:26:38;;;;;;;3.08;1.10;;;12.10;54.90;;;;;;2356907;53;21945;-66
2024/03/27 03:29:04;;;;;;;4.43;1.60;;;12.10;54.90;;;;;;2355599;53;21490;-67
2024/03/27 03:31:30;;;;;;;3.25;1.30;;;12.00;54.80;;;;;;2367842;53;21534;-67
2024/03/27 03:33:59;;;;;;;3.67;1.37;;;12.00;54.90;;;;;;2351535;53;21232;-67
2024/03/27 03:36:26;;;;;;;3.37;1.33;;;12.00;54.90;;;;;;2360765;53;21068;-66
2024/03/27 03:38:52;;;;;;;3.87;1.25;;;11.90;54.80;;;;;;2346063;53;20940;-66
2024/03/27 03:41:20;;;;;;;3.45;1.17;;;12.00;55.00;;;;;;2366565;53;21143;-66
2024/03/27 03:43:46;;;;;;;2.40;1.10;;;11.90;55.00;;;;;;2367371;53;20946;-66
2024/03/27 03:46:12;;;;;;;4.95;1.30;;;11.80;55.00;;;;;;2368028;53;21002;-67
2024/03/27 03:48:40;;;;;;;3.05;1.20;;;11.80;55.00;;;;;;2368628;53;21025;-66
2024/03/27 03:51:06;;;;;;;3.22;1.20;;;11.70;55.00;;;;;;2367933;53;21061;-67
2024/03/27 03:53:32;;;;;;;3.25;1.37;;;11.70;55.10;;;;;;2368037;53;20957;-67
2024/03/27 03:55:59;;;;;;;4.55;1.27;;;11.70;55.10;;;;;;2367460;53;20926;-66
2024/03/27 03:58:25;;;;;;;2.67;1.08;;;11.70;55.20;;;;;;2368228;53;21003;-67
2024/03/27 04:00:53;;;;;;;3.70;1.35;;;11.70;55.20;;;;;;2367608;53;20961;-66
2024/03/27 04:03:19;;;;;;;5.78;1.27;;;11.60;55.20;;;;;;2368085;53;21454;-66
2024/03/27 04:05:45;;;;;;;3.03;1.37;;;11.60;55.30;;;;;;2368566;53;21076;-67
2024/03/27 04:08:11;;;;;;;2.92;1.27;;;11.70;55.40;;;;;;2368437;53;20947;-67
2024/03/27 04:10:41;;;;;;;3.08;1.42;;;11.60;55.30;;;;;;2367825;53;21174;-66
2024/03/27 04:13:08;;;;;;;3.55;1.55;;;11.60;55.40;;;;;;2350842;53;21094;-66
2024/03/27 04:15:39;;;;;;;4.00;1.80;;;11.60;55.40;;;;;;2362621;53;21467;-66
2024/03/27 04:18:06;;;;;;;5.70;2.30;;;11.60;55.60;;;;;;2368137;53;21259;-67
2024/03/27 04:20:32;;;;;;;4.60;1.67;;;11.60;55.70;;;;;;2368373;53;20946;-67
2024/03/27 04:22:58;;;;;;;3.35;1.60;;;11.60;55.80;;;;;;2340816;53;21020;-67
2024/03/27 04:25:25;;;;;;;4.28;1.45;;;11.60;55.80;;;;;;2340677;53;21783;-67
2024/03/27 04:27:54;;;;;;;3.28;1.50;;;11.50;55.70;;;;;;2340608;53;21012;-66
2024/03/27 04:30:20;;;;;;;2.95;1.42;;;11.60;55.90;;;;;;2340260;53;21493;-66
2024/03/27 04:32:46;;;;;;;3.53;1.60;;;11.60;55.90;;;;;;2340371;53;20960;-67
2024/03/27 04:35:13;;;;;;;3.87;1.37;;;11.60;56.00;;;;;;2340770;53;21243;-66
2024/03/27 04:37:40;;;;;;;3.87;1.55;;;11.60;56.00;;;;;;2340528;53;20976;-66
2024/03/27 04:40:11;;;;;;;3.65;1.40;;;11.60;56.10;;;;;;2340777;53;20921;-66
2024/03/27 04:42:37;;;;;;;3.55;1.40;;;11.60;56.20;;;;;;2339077;53;20954;-66
2024/03/27 04:45:05;;;;;;;3.83;1.55;;;11.60;56.20;;;;;;2345190;54;20984;-67
2024/03/27 04:47:32;;;;;;;3.47;1.80;;;11.60;56.20;;;;;;2368640;53;20946;-68
2024/03/27 04:49:59;;;;;;;4.32;1.58;;;11.60;56.20;;;;;;2368197;53;22276;-66
2024/03/27 04:52:25;;;;;;;3.42;1.30;;;11.70;56.30;;;;;;2367798;53;21065;-67
2024/03/27 04:54:52;;;;;;;4.60;2.03;;;11.70;56.30;;;;;;2368894;53;20970;-67
2024/03/27 04:57:18;;;;;;;4.25;1.83;;;11.70;56.30;;;;;;2367754;53;21668;-67
2024/03/27 04:59:45;;;;;;;3.58;1.60;;;11.70;56.40;;;;;;2368052;53;21174;-66
2024/03/27 05:02:13;;;;;;;7.43;2.45;;;11.70;56.40;;;;;;2368718;53;21392;-67
2024/03/27 05:04:39;;;;;;;5.55;2.65;;;11.70;56.50;;;;;;2366171;53;21031;-66
2024/03/27 05:07:05;;;;;;;4.87;2.30;;;11.70;56.60;;;;;;2352283;53;21188;-68
2024/03/27 05:09:34;;;;;;;5.22;2.55;;;11.90;56.80;;;;;;2368285;53;21186;-67
2024/03/27 05:12:03;;;;;;;5.35;2.53;;;11.80;56.60;;;;;;2368885;53;20950;-67
2024/03/27 05:14:30;;;;;;;4.93;2.40;;;11.80;56.70;;;;;;2368693;53;21062;-65
2024/03/27 05:16:56;;;;;;;5.50;2.40;;;11.80;56.70;;;;;;2368677;53;21222;-66
2024/03/27 05:19:23;;;;;;;5.05;2.25;;;11.90;57.10;;;;;;2367630;53;20986;-66
2024/03/27 05:21:52;;;;;;;6.03;2.50;;;11.80;56.80;;;;;;2368403;53;21334;-66
2024/03/27 05:24:18;;;;;;;3.30;1.70;;;11.80;56.80;;;;;;2369661;53;20938;-66
2024/03/27 05:26:46;;;;;;;4.20;1.60;;;11.80;56.80;;;;;;2347326;53;20954;-67
2024/03/27 05:29:13;;;;;;;4.05;1.40;;;11.90;56.90;;;;;;2368532;53;21665;-67
2024/03/27 05:31:52;;;;;;;3.08;1.20;;;11.90;57.00;;;;;;2368490;53;21005;-67
2024/03/27 05:34:18;;;;;;;2.50;0.90;;;11.90;57.30;;;;;;2351712;53;20979;-67
2024/03/27 05:36:45;;;;;;;2.20;0.70;;;12.00;57.40;;;;;;2365001;53;20958;-65
2024/03/27 05:39:11;;;;;;;2.90;0.98;;;12.00;57.50;;;;;;2367456;53;20990;-67
2024/03/27 05:41:38;;;;;;;2.70;0.95;;;12.00;57.70;;;;;;2368066;53;21257;-66
2024/03/27 05:44:07;;;;;;;2.35;1.00;;;12.10;57.90;;;;;;2368375;53;20922;-67
2024/03/27 05:46:34;;;;;;;5.12;1.15;;;12.10;58.00;;;;;;2368918;53;20942;-67
2024/03/27 05:49:01;;;;;;;2.20;0.90;;;12.20;58.10;;;;;;2368151;53;20994;-66
2024/03/27 05:51:28;;;;;;;2.75;0.80;;;12.30;58.30;;;;;;2368540;53;21890;-66
2024/03/27 05:53:55;;;;;;;1.80;0.80;;;12.30;58.30;;;;;;2345700;54;21025;-66
2024/03/27 05:56:22;;;;;;;1.65;0.70;;;12.40;58.40;;;;;;2351999;53;21006;-66
2024/03/27 05:58:49;;;;;;;1.80;0.80;;;12.50;58.50;;;;;;2364444;53;21486;-66
2024/03/27 06:01:15;;;;;;;1.87;0.77;;;12.50;58.50;;;;;;2352954;53;20982;-66
2024/03/27 06:03:51;;;;;;;2.60;1.37;;;12.60;58.50;;;;;;2368758;53;21301;-66
2024/03/27 06:06:17;;;;;;;2.78;0.80;;;12.60;58.60;;;;;;2368174;53;21057;-67
2024/03/27 06:08:47;;;;;;;2.53;0.80;;;12.70;58.50;;;;;;2368531;53;21004;-69
2024/03/27 06:11:13;;;;;;;2.40;0.88;;;12.80;58.60;;;;;;2368376;53;20933;-68
2024/03/27 06:13:39;;;;;;;2.47;0.82;;;12.80;58.60;;;;;;2353118;54;21524;-67
2024/03/27 06:16:06;;;;;;;2.85;0.88;;;12.90;58.60;;;;;;2363239;53;21202;-67
2024/03/27 06:18:32;;;;;;;2.45;0.80;;;12.90;58.60;;;;;;2368720;53;21572;-66
2024/03/27 06:20:59;;;;;;;2.58;0.77;;;13.00;58.60;;;;;;2368153;53;21696;-66
2024/03/27 06:23:25;;;;;;;1.70;0.77;;;13.00;58.60;;;;;;2368901;53;21293;-66
2024/03/27 06:26:00;;;;;;;1.65;0.73;;;13.10;58.60;;;;;;2368838;53;21037;-64
2024/03/27 06:28:27;;;;;;;3.80;0.80;;;13.20;58.70;;;;;;2368240;53;21001;-67
2024/03/27 06:31:00;;;;;;;3.08;0.90;;;13.20;58.60;;;;;;2350466;54;21005;-66
2024/03/27 06:33:26;;;;;;;1.65;0.62;;;13.30;58.60;;;;;;2368057;53;20941;-66
2024/03/27 06:35:52;;;;;;;1.85;0.77;;;13.30;58.60;;;;;;2368300;53;21018;-66
2024/03/27 06:38:20;;;;;;;1.77;0.70;;;13.30;58.60;;;;;;2367384;53;21829;-67
2024/03/27 06:40:47;;;;;;;2.03;0.68;;;13.40;58.60;;;;;;2358373;53;20951;-66
2024/03/27 06:43:14;;;;;;;1.65;0.65;;;13.40;58.60;;;;;;2357957;53;20930;-67
2024/03/27 06:45:43;;;;;;;2.33;0.60;;;13.40;58.50;;;;;;2366983;53;20930;-67
2024/03/27 06:48:12;;;;;;;2.12;0.60;;;13.50;58.60;;;;;;2368839;53;21060;-67
2024/03/27 06:50:38;;;;;;;1.67;0.77;;;13.50;58.60;;;;;;2368166;53;20982;-67
2024/03/27 06:53:04;;;;;;;4.43;0.90;;;13.50;58.60;;;;;;2367693;53;21543;-67
2024/03/27 06:55:31;;;;;;;1.83;0.70;;;13.60;58.70;;;;;;2349450;53;21120;-66
2024/03/27 06:57:57;;;;;;;1.73;0.65;;;13.60;58.60;;;;;;2368136;53;21455;-68
2024/03/27 07:00:23;;;;;;;1.85;0.70;;;13.70;58.70;;;;;;2367669;53;20990;-66
2024/03/27 07:02:50;;;;;;;2.83;1.10;;;13.70;58.70;;;;;;2368062;53;21545;-67
2024/03/27 07:05:16;;;;;;;1.85;0.80;;;13.80;58.70;;;;;;2367966;53;21014;-66
2024/03/27 07:07:42;;;;;;;2.12;0.82;;;13.80;58.70;;;;;;2368186;53;21685;-67
2024/03/27 07:10:09;;;;;;;3.75;0.90;;;13.80;58.70;;;;;;2368595;53;20922;-67
2024/03/27 07:12:35;;;;;;;4.03;0.85;;;13.90;58.80;;;;;;2368670;53;20967;-66
2024/03/27 07:15:02;;;;;;;3.25;0.90;;;13.90;58.80;;;;;;2348530;53;21031;-66
2024/03/27 07:17:28;;;;;;;1.55;0.60;;;13.90;58.80;;;;;;2367852;53;20933;-68
2024/03/27 07:19:55;;;;;;;1.55;0.70;;;14.00;58.80;;;;;;2368850;53;20958;-67
2024/03/27 07:22:21;;;;;;;1.45;0.60;;;14.00;58.80;;;;;;2368223;53;21273;-66
2024/03/27 07:24:51;;;;;;;1.73;0.65;;;14.10;58.80;;;;;;2368590;53;21025;-67
2024/03/27 07:27:17;;;;;;;1.58;0.70;;;14.10;58.80;;;;;;2359372;53;20971;-67
2024/03/27 07:29:47;;;;;;;2.65;0.90;;;14.10;58.70;;;;;;2357412;53;20919;-67
2024/03/27 07:32:14;;;;;;;2.72;0.80;;;14.20;58.80;;;;;;2368310;53;21507;-67
2024/03/27 07:34:41;;;;;;;2.50;1.00;;;14.10;58.60;;;;;;2367231;53;20977;-67
2024/03/27 07:37:11;;;;;;;3.40;1.30;;;14.20;58.70;;;;;;2354796;54;20956;-67
2024/03/27 07:39:40;;;;;;;2.67;1.30;;;14.20;58.70;;;;;;2360307;53;20930;-66
2024/03/27 07:42:06;;;;;;;2.67;0.95;;;14.30;58.60;;;;;;2366612;53;20978;-67
2024/03/27 07:44:33;;;;;;;2.17;0.88;;;14.20;58.50;;;;;;2348731;53;20941;-67
2024/03/27 07:46:59;;;;;;;3.58;1.27;;;14.20;58.40;;;;;;2367639;53;20930;-67
2024/03/27 07:49:25;;;;;;;2.70;1.10;;;14.20;58.40;;;;;;2367174;53;21009;-66
2024/03/27 07:51:52;;;;;;;2.10;1.00;;;14.20;58.50;;;;;;2367621;53;20930;-68
2024/03/27 07:54:19;;;;;;;2.50;1.15;;;14.20;58.50;;;;;;2371202;53;20926;-67
2024/03/27 07:56:45;;;;;;;2.42;1.08;;;14.20;58.40;;;;;;2368644;53;20917;-66
2024/03/27 07:59:11;;;;;;;2.45;1.10;;;14.30;58.30;;;;;;2368147;53;20946;-67
2024/03/27 08:01:38;;;;;;;2.12;0.98;;;14.20;58.10;;;;;;2346779;54;21486;-66
2024/03/27 08:04:04;;;;;;;3.58;1.08;;;14.20;58.00;;;;;;2352826;53;21420;-68
2024/03/27 08:06:33;;;;;;;2.20;0.90;;;14.20;58.00;;;;;;2368342;53;20986;-66
2024/03/27 08:09:01;;;;;;;2.03;0.90;;;14.10;57.80;;;;;;2368055;53;20969;-66
2024/03/27 08:11:27;;;;;;;1.95;0.85;;;14.20;57.90;;;;;;2368086;53;21033;-66
2024/03/27 08:14:04;;;;;;;2.50;1.10;;;14.10;57.70;;;;;;2367662;53;21034;-67
2024/03/27 08:16:30;;;;;;;2.30;1.00;;;14.00;57.50;;;;;;2367837;53;20989;-66
2024/03/27 08:18:56;;;;;;;2.47;0.95;;;14.00;57.60;;;;;;2368296;53;21193;-66
2024/03/27 08:21:23;;;;;;;1.48;0.77;;;13.90;57.50;;;;;;2367506;53;21053;-66
2024/03/27 08:23:49;;;;;;;1.98;0.80;;;13.90;57.50;;;;;;2368229;53;20989;-67
2024/03/27 08:26:15;;;;;;;1.75;0.80;;;13.90;57.60;;;;;;2368145;53;20914;-66
2024/03/27 08:28:42;;;;;;;2.08;0.90;;;13.90;57.70;;;;;;2368293;53;20930;-67
2024/03/27 08:31:08;;;;;;;2.10;0.90;;;13.80;57.60;;;;;;2367844;53;20926;-67
2024/03/27 08:33:35;;;;;;;1.23;0.60;;;13.80;57.70;;;;;;2368662;53;21186;-66
2024/03/27 08:36:05;;;;;;;1.62;0.85;;;13.80;57.80;;;;;;2367880;53;20956;-68
2024/03/27 08:38:31;;;;;;;2.00;0.93;;;13.80;57.90;;;;;;2368200;53;21037;-67
2024/03/27 08:40:59;;;;;;;2.35;1.10;;;13.70;57.80;;;;;;2367595;53;21387;-66
2024/03/27 08:43:26;;;;;;;2.25;1.02;;;13.70;57.80;;;;;;2367892;53;20934;-66
2024/03/27 08:45:52;;;;;;;1.65;0.70;;;13.70;57.80;;;;;;2348269;53;21063;-67
2024/03/27 08:48:18;;;;;;;2.05;0.85;;;13.70;57.80;;;;;;2368129;53;21812;-67
2024/03/27 08:50:44;;;;;;;3.50;1.08;;;13.70;57.80;;;;;;2360885;53;21031;-67
2024/03/27 08:53:11;;;;;;;1.87;0.77;;;13.70;57.80;;;;;;2355216;53;21053;-66
2024/03/27 08:55:40;;;;;;;1.98;0.77;;;13.70;57.70;;;;;;2367270;53;20970;-66
2024/03/27 08:58:07;;;;;;;1.70;0.80;;;13.70;57.70;;;;;;2368407;53;21030;-67
2024/03/27 09:00:33;;;;;;;2.25;0.82;;;13.70;57.60;;;;;;2367955;53;21437;-66
2024/03/27 09:03:01;;;;;;;2.00;0.90;;;13.70;57.60;;;;;;2368398;53;21010;-67
2024/03/27 09:05:31;;;;;;;1.48;0.65;;;13.60;57.60;;;;;;2368045;53;20934;-66
2024/03/27 09:07:57;;;;;;;1.85;0.85;;;13.60;57.50;;;;;;2367926;53;20954;-66
2024/03/27 09:10:26;;;;;;;2.00;0.80;;;13.60;57.50;;;;;;2367850;53;20951;-66
2024/03/27 09:12:53;;;;;;;2.05;0.90;;;13.60;57.50;;;;;;2368207;53;20926;-66
2024/03/27 09:15:19;;;;;;;1.50;0.70;;;13.60;57.50;;;;;;2368628;53;21002;-67
2024/03/27 09:17:46;;;;;;;4.55;0.80;;;13.60;57.60;;;;;;2368593;53;21623;-66
2024/03/27 09:20:12;;;;;;;1.75;0.60;;;13.60;57.60;;;;;;2368234;53;20930;-67
2024/03/27 09:22:38;;;;;;;2.42;0.70;;;13.60;57.60;;;;;;2368153;53;21022;-68
2024/03/27 09:25:08;;;;;;;2.28;0.80;;;13.50;57.50;;;;;;2367985;53;21348;-66
2024/03/27 09:27:36;;;;;;;2.30;0.83;;;13.50;57.60;;;;;;2368574;53;21431;-67
2024/03/27 09:30:02;;;;;;;1.85;0.80;;;13.50;57.60;;;;;;2368371;53;21179;-67
2024/03/27 09:32:29;;;;;;;2.25;0.75;;;13.50;57.70;;;;;;2348117;53;21082;-67
2024/03/27 09:34:55;;;;;;;2.28;0.82;;;13.50;57.80;;;;;;2368312;53;20942;-67
2024/03/27 09:37:21;;;;;;;1.80;0.73;;;13.40;57.80;;;;;;2367975;53;20965;-67
2024/03/27 09:39:48;;;;;;;2.25;0.70;;;13.40;57.80;;;;;;2368412;53;20934;-66
2024/03/27 09:42:15;;;;;;;2.20;0.80;;;13.50;58.00;;;;;;2367080;53;20966;-67
2024/03/27 09:44:44;;;;;;;3.67;0.88;;;13.50;58.10;;;;;;2368746;53;21020;-66
2024/03/27 09:47:13;;;;;;;2.80;1.00;;;13.50;58.10;;;;;;2368584;53;22122;-66
2024/03/27 09:49:48;;;;;;;3.12;1.00;;;13.50;58.10;;;;;;2367989;53;21020;-66
2024/03/27 09:52:15;;;;;;;2.33;1.02;;;13.50;58.10;;;;;;2362918;53;21572;-67
2024/03/27 09:54:41;;;;;;;2.12;0.77;;;13.50;58.00;;;;;;2353311;53;20993;-67
2024/03/27 09:57:10;;;;;;;2.28;0.82;;;13.50;58.00;;;;;;2368536;53;20938;-67
2024/03/27 09:59:38;;;;;;;1.70;0.70;;;13.50;57.90;;;;;;2368441;53;21162;-67
2024/03/27 10:02:09;;;;;;;3.05;1.33;;;13.40;57.80;;;;;;2348100;53;21548;-67
2024/03/27 10:04:36;;;;;;;2.90;1.10;;;13.40;57.80;;;;;;2368518;53;20968;-67
2024/03/27 10:07:04;;;;;;;1.83;0.68;;;13.40;57.80;;;;;;2368331;53;20953;-67
2024/03/27 10:09:30;;;;;;;1.75;0.50;;;13.40;57.70;;;;;;2368557;53;20938;-67
2024/03/27 10:11:56;;;;;;;1.02;0.50;;;13.40;57.80;;;;;;2365831;53;21896;-68
2024/03/27 10:14:27;;;;;;;0.80;0.30;;;13.30;57.70;;;;;;2344151;53;21340;-66
2024/03/27 10:16:55;;;;;;;0.80;0.30;;;13.30;57.80;;;;;;2350125;53;20944;-66
2024/03/27 10:19:21;;;;;;;0.73;0.30;;;13.20;57.70;;;;;;2338849;54;21244;-66
2024/03/27 10:21:48;;;;;;;0.13;0.13;;;13.20;57.70;;;;;;2339296;54;21052;-66
2024/03/27 10:24:14;;;;;;;0.50;0.28;;;13.20;57.70;;;;;;2338900;54;21526;-67
2024/03/27 10:26:45;;;;;;;0.22;0.20;;;13.10;57.70;;;;;;2338842;54;20965;-66
2024/03/27 10:29:13;;;;;;;0.20;0.20;;;13.10;57.80;;;;;;2339598;54;20968;-67
2024/03/27 10:31:39;;;;;;;1.05;0.37;;;13.00;57.70;;;;;;2339113;54;21256;-66
2024/03/27 10:34:07;;;;;;;0.93;0.40;;;13.00;57.90;;;;;;2354263;53;20942;-67
2024/03/27 10:36:35;;;;;;;1.05;0.40;;;13.00;58.00;;;;;;2348004;53;20933;-66
2024/03/27 10:39:04;;;;;;;0.95;0.40;;;12.90;58.00;;;;;;2340429;53;21339;-66
2024/03/27 10:41:30;;;;;;;1.27;0.50;;;12.90;58.10;;;;;;2340810;53;21304;-67
2024/03/27 10:43:57;;;;;;;1.08;0.40;;;12.90;58.70;;;;;;2317935;54;21691;-66
2024/03/27 10:46:24;;;;;;;1.02;0.43;;;12.90;58.10;;;;;;2339892;53;21797;-66
2024/03/27 10:48:54;;;;;;;0.95;0.50;;;12.90;58.20;;;;;;2344868;53;21803;-67
2024/03/27 10:51:20;;;;;;;3.22;0.93;;;12.80;58.30;;;;;;2339574;54;21087;-66
2024/03/27 10:53:48;;;;;;;1.48;0.70;;;12.80;58.30;;;;;;2340472;54;21000;-66
2024/03/27 10:56:15;;;;;;;1.85;0.60;;;12.80;58.50;;;;;;2339847;54;20965;-66
2024/03/27 10:58:42;;;;;;;0.90;0.50;;;12.80;58.50;;;;;;2339782;54;21012;-65
2024/03/27 11:01:12;;;;;;;1.60;0.70;;;12.80;58.50;;;;;;2339803;54;21209;-66
2024/03/27 11:03:41;;;;;;;1.40;0.55;;;12.70;58.40;;;;;;2339386;54;21324;-66
2024/03/27 11:06:08;;;;;;;1.23;0.47;;;12.70;58.40;;;;;;2340537;54;20997;-66
2024/03/27 11:08:36;;;;;;;1.52;0.70;;;12.70;58.40;;;;;;2339285;54;21324;-65
2024/03/27 11:11:04;;;;;;;1.67;0.60;;;12.70;58.60;;;;;;2339939;54;20982;-65
2024/03/27 11:13:30;;;;;;;2.50;0.80;;;12.70;58.70;;;;;;2340565;54;20960;-67
2024/03/27 11:15:56;;;;;;;2.42;0.77;;;12.70;58.70;;;;;;2340861;54;20993;-66
2024/03/27 11:18:28;;;;;;;1.35;0.57;;;12.70;59.20;;;;;;2341024;54;21040;-66
2024/03/27 11:20:55;;;;;;;1.85;0.70;;;12.70;58.70;;;;;;2324870;54;21097;-66
2024/03/27 11:23:35;;;;;;;1.98;0.82;;;12.70;58.60;;;;;;2336477;54;20947;-66
2024/03/27 11:26:02;;;;;;;1.25;0.52;;;12.70;58.60;;;;;;2345556;53;21383;-66
2024/03/27 11:28:28;;;;;;;1.37;0.50;;;12.60;58.50;;;;;;2367829;53;21014;-67
2024/03/27 11:30:55;;;;;;;1.30;0.50;;;12.60;58.40;;;;;;2368479;53;21001;-65
2024/03/27 11:33:22;;;;;;;1.77;0.60;;;12.60;58.50;;;;;;2367725;53;21026;-66
2024/03/27 11:35:48;;;;;;;1.48;0.60;;;12.60;58.50;;;;;;2367420;53;20965;-66
2024/03/27 11:38:17;;;;;;;2.70;0.93;;;12.60;58.60;;;;;;2367226;53;21077;-66
2024/03/27 11:40:43;;;;;;;3.17;1.00;;;12.60;58.60;;;;;;2366689;53;20998;-67
2024/03/27 11:43:09;;;;;;;2.45;0.80;;;12.60;58.60;;;;;;2363022;53;20951;-66
2024/03/27 11:45:37;;;;;;;3.33;0.90;;;12.60;58.60;;;;;;2325502;54;20956;-66
2024/03/27 11:48:04;;;;;;;2.28;0.90;;;12.60;58.60;;;;;;2367944;53;20934;-66
2024/03/27 11:50:30;;;;;;;1.55;0.70;;;12.60;58.60;;;;;;2367391;53;21070;-67
2024/03/27 11:52:59;;;;;;;2.08;0.80;;;12.50;58.40;;;;;;2367821;53;20954;-66
2024/03/27 11:55:25;;;;;;;1.10;0.40;;;12.50;58.40;;;;;;2368116;53;21435;-66
2024/03/27 11:57:53;;;;;;;1.05;0.50;;;12.50;58.30;;;;;;2367869;53;21439;-66
2024/03/27 12:00:19;;;;;;;1.40;0.60;;;12.50;58.90;;;;;;2367500;53;20946;-66
2024/03/27 12:02:46;;;;;;;1.70;0.60;;;12.40;58.30;;;;;;2368212;53;21006;-66
2024/03/27 12:05:13;;;;;;;2.03;0.70;;;12.40;58.30;;;;;;2367941;53;20938;-66
2024/03/27 12:07:40;;;;;;;1.10;0.43;;;12.40;58.40;;;;;;2363948;53;21055;-66
2024/03/27 12:10:10;;;;;;;2.97;0.60;;;12.30;58.40;;;;;;2347431;53;21256;-66
2024/03/27 12:12:39;;;;;;;0.88;0.40;;;12.30;58.40;;;;;;2344035;54;21229;-66
2024/03/27 12:15:05;;;;;;;1.17;0.40;;;12.30;58.50;;;;;;2348772;53;21468;-66
2024/03/27 12:17:35;;;;;;;1.58;0.60;;;12.30;58.60;;;;;;2367916;53;20989;-66
2024/03/27 12:20:05;;;;;;;1.65;0.68;;;12.20;58.60;;;;;;2360061;53;20920;-66
2024/03/27 12:22:33;;;;;;;1.05;0.50;;;12.00;58.50;;;;;;2353414;53;21045;-66
2024/03/27 12:24:59;;;;;;;2.70;0.70;;;12.20;58.70;;;;;;2367698;53;21097;-66
2024/03/27 12:27:30;;;;;;;1.25;0.60;;;12.20;58.70;;;;;;2367512;53;20947;-65
2024/03/27 12:29:56;;;;;;;1.50;0.60;;;12.20;58.80;;;;;;2368378;53;21045;-66
2024/03/27 12:32:27;;;;;;;1.40;0.57;;;12.20;58.70;;;;;;2367864;53;20962;-66
2024/03/27 12:34:54;;;;;;;1.30;0.60;;;12.20;58.70;;;;;;2347984;54;21043;-66
2024/03/27 12:37:20;;;;;;;1.67;0.50;;;12.20;58.60;;;;;;2363747;53;20954;-66
2024/03/27 12:39:47;;;;;;;0.82;0.40;;;12.20;58.60;;;;;;2368072;53;20942;-65
2024/03/27 12:42:14;;;;;;;1.10;0.50;;;12.10;58.60;;;;;;2370380;53;20946;-65
2024/03/27 12:44:42;;;;;;;1.62;0.65;;;12.10;58.60;;;;;;2369482;53;20997;-67
2024/03/27 12:47:08;;;;;;;1.33;0.50;;;12.10;58.60;;;;;;2325677;53;20962;-65